Terminal Aerodrome Forecast
Issued by NWS

Home | Current Version | Previous Version | Graphics & Text | Print | Product List | Glossary On
Versions: 1 2 3 4 5 6 7 8 9 10 11 12 13 14 15 16 17 18 19 20 21
000
FTUS43 KGRB 011100
TAFATW
TAF
KATW 011136Z 0112/0212 04015G24KT 3SM -SN OVC022
      TEMPO 0112/0116 1 1/2SM -SN BKN012
     FM011600 03020G30KT 5SM -SN OVC030
      TEMPO 0116/0120 2SM -SN BLSN BKN022
     FM012100 03017G28KT 6SM -SHSN BLSN SCT030 BKN060
     FM020100 01015G23KT P6SM SCT035 BKN070
     FM020600 35011KT P6SM SCT070 BKN120=

USA.gov is the U.S. government's official web portal to all federal, state and local government web resources and services.